KECS/ECS METAR and TAF weather

Enter ICAO airport designator
Station Type Date Time Source
KECS METAR 2020/01/23 15:15 UTC NOAA

KECS 231515Z AUTO 36006KT 10SM CLR M05/M08 A3011 RMK AO2


Station Type Date Time Source
KECS Decoded METAR 2020/01/23 15:15 UTC NOAA

Station name not available
Jan 23, 2020 - 10:15 AM EST / 2020.01.23 1515 UTC
Wind: from the N (360 degrees) at 7 MPH (6 KT):0
Visibility: 10 mile(s):0
Sky conditions: clear
Temperature: 23 F (-5 C)
Windchill: 14 F (-10 C):1
Dew Point: 17 F (-8 C)
Relative Humidity: 79%
Pressure (altimeter): 30.11 in. Hg (1019 hPa)
ob: KECS 231515Z AUTO 36006KT 10SM CLR M05/M08 A3011 RMK AO2
cycle: 15

Station Type Date Time Source
KECS TAF UTC NOAA

Error!

Example: see airport list